CDT,Max TemperatureF,Mean TemperatureF,Min TemperatureF,Max Dew PointF,MeanDew PointF,Min DewpointF,Max Humidity, Mean Humidity, Min Humidity, Max Sea Level PressureIn, Mean Sea Level PressureIn, Min Sea Level PressureIn, Max VisibilityMiles, Mean VisibilityMiles, Min VisibilityMiles, Max Wind SpeedMPH, Mean Wind SpeedMPH, Max Gust SpeedMPH,PrecipitationIn, CloudCover, Events, WindDirDegrees
2013-8-1,86,74,62,70,65,59,100,81,42,30.09,30.04,29.98,10,8,0,6,3,,0.00,2,Fog,326
2013-8-2,80,72,64,73,69,64,100,91,65,30.00,29.95,29.91,10,9,2,8,2,,0.02,3,Rain-Thunderstorm,144
2013-8-3,84,76,66,72,69,64,100,85,58,30.12,30.02,29.93,10,8,0,8,1,,0.00,5,Fog,356
2013-8-4,77,70,62,66,63,57,100,79,50,30.18,30.13,30.07,10,10,9,7,2,,0.00,2,,114
2013-8-5,75,70,66,72,66,63,100,84,78,30.10,29.98,29.87,10,10,5,10,5,,0.00,7,,136
2013-8-6,86,78,71,73,71,68,100,84,55,29.93,29.88,29.83,10,8,0,8,3,,0.00,3,Fog,173
2013-8-7,86,78,71,75,71,68,100,83,55,29.93,29.88,29.81,10,10,8,10,4,17,0.00,2,Rain-Thunderstorm,236
2013-8-8,80,76,71,73,72,70,100,94,78,29.97,29.93,29.89,10,8,0,8,2,,0.39,5,Rain-Thunderstorm,360
2013-8-9,77,72,66,73,70,66,100,93,78,30.07,30.01,29.96,10,7,1,7,0,,0.00,6,Rain,244
2013-8-10,82,73,64,70,64,57,100,75,42,30.16,30.11,30.07,10,10,8,9,2,,0.00,1,,1
2013-8-11,86,72,57,66,61,57,100,74,40,30.15,30.11,30.04,10,10,8,7,1,,0.00,1,,110
2013-8-12,80,74,68,75,70,64,100,92,78,30.04,29.98,29.92,10,9,1,8,1,,0.41,6,Rain-Thunderstorm,331
2013-8-13,77,70,64,68,64,55,100,82,54,30.14,30.04,29.97,10,8,2,9,3,,0.00,1,,354
2013-8-14,73,63,53,57,53,48,100,72,41,30.21,30.16,30.12,10,9,1,7,2,,0.00,2,,74
2013-8-15,73,63,53,59,54,50,100,76,44,30.17,30.13,30.07,10,10,8,8,1,,0.00,3,,59
2013-8-16,75,65,55,61,57,54,100,78,50,30.15,30.13,30.10,10,10,9,8,1,,0.00,4,,58
2013-8-17,78,66,55,63,58,55,100,78,50,30.19,30.14,30.10,10,10,2,8,2,,0.00,2,,12
2013-8-18,82,70,59,66,62,59,100,80,48,30.18,30.13,30.07,10,9,2,9,2,,0.00,3,Rain,37
2013-8-19,84,72,59,68,64,59,100,80,48,30.14,30.09,30.02,10,7,0,7,1,,0.00,1,Fog,148
2013-8-20,86,73,60,68,66,61,100,80,48,30.12,30.07,30.02,10,7,2,6,1,,0.00,1,Rain,174
2013-8-21,89,76,62,70,66,63,100,76,43,30.13,30.08,30.03,10,7,0,10,1,,0.00,0,Fog-Rain,233
2013-8-22,89,78,66,77,71,66,100,87,52,30.11,30.07,30.02,10,8,2,14,1,23,0.21,2,Rain-Thunderstorm,299
2013-8-23,89,79,69,75,71,68,100,79,52,30.11,30.07,30.03,10,7,2,7,1,,0.00,2,Rain,101
2013-8-24,91,78,64,72,67,63,100,73,38,30.20,30.15,30.09,10,8,1,10,2,,0.00,0,,129
2013-8-25,91,76,62,70,66,63,100,74,38,30.26,30.20,30.15,10,9,3,6,1,,0.00,1,,225
2013-8-26,93,80,68,75,71,68,100,75,46,30.21,30.14,30.07,10,8,2,8,2,,0.00,1,,216
2013-8-27,93,81,69,73,70,64,100,71,38,30.10,30.05,29.98,10,10,7,14,2,,0.00,0,,251
2013-8-28,93,78,64,73,68,64,100,73,38,30.05,30.01,29.98,10,10,4,9,1,,0.00,0,,309
2013-8-29,95,82,68,73,70,66,100,75,39,30.06,30.01,29.95,10,10,9,7,1,,0.00,0,,269
2013-8-30,98,84,71,75,72,68,100,70,37,29.98,29.91,29.83,10,10,10,9,2,,0.00,1,,249
2013-8-31,98,86,73,75,72,66,100,71,37,29.86,29.81,29.72,10,10,6,14,2,29,0.00,1,Rain-Thunderstorm,238